createdAt,value
2023-01-11T00:02:17.367Z,3.97
2023-01-11T00:04:47.554Z,3.13
2023-01-11T00:07:15.258Z,3.63
2023-01-11T00:09:42.996Z,3.73
2023-01-11T00:12:12.363Z,2.90
2023-01-11T00:14:40.082Z,4.63
2023-01-11T00:17:07.698Z,3.37
2023-01-11T00:19:35.265Z,3.50
2023-01-11T00:22:04.164Z,3.13
2023-01-11T00:24:31.775Z,3.87
2023-01-11T00:26:59.379Z,3.23
2023-01-11T00:29:26.968Z,3.30
2023-01-11T00:31:54.623Z,4.17
2023-01-11T00:34:22.301Z,3.53
2023-01-11T00:36:50.086Z,3.23
2023-01-11T00:39:19.160Z,2.97
2023-01-11T00:42:04.370Z,3.67
2023-01-11T00:44:49.830Z,3.63
2023-01-11T00:47:36.173Z,3.47
2023-01-11T00:50:03.934Z,2.57
2023-01-11T00:52:31.559Z,2.73
2023-01-11T00:55:00.468Z,3.93
2023-01-11T00:57:28.267Z,3.50
2023-01-11T00:59:55.824Z,4.40
2023-01-11T01:02:23.506Z,3.87
2023-01-11T01:04:51.257Z,4.03
2023-01-11T01:07:18.887Z,2.90
2023-01-11T01:09:48.489Z,3.33
2023-01-11T01:12:38.286Z,3.10
2023-01-11T01:15:06.018Z,3.13
2023-01-11T01:17:33.656Z,3.23
2023-01-11T01:20:01.333Z,3.00
2023-01-11T01:22:28.924Z,4.27
2023-01-11T01:24:56.511Z,3.20
2023-01-11T01:27:25.725Z,3.43
2023-01-11T01:29:53.350Z,3.13
2023-01-11T01:32:20.940Z,3.90
2023-01-11T01:34:48.575Z,3.57
2023-01-11T01:37:16.665Z,4.03
2023-01-11T01:39:44.328Z,3.30
2023-01-11T01:42:14.402Z,4.00
2023-01-11T01:45:01.449Z,3.53
2023-01-11T01:47:34.448Z,5.40
2023-01-11T01:50:04.733Z,3.20
2023-01-11T01:52:33.270Z,3.23
2023-01-11T01:55:03.394Z,3.60
2023-01-11T01:57:33.466Z,3.40
2023-01-11T02:00:04.636Z,3.07
2023-01-11T02:02:34.157Z,3.53
2023-01-11T02:05:02.402Z,2.80
2023-01-11T02:07:32.142Z,2.60
2023-01-11T02:10:01.802Z,2.50
2023-01-11T02:12:31.770Z,2.90
2023-01-11T02:15:02.103Z,3.10
2023-01-11T02:17:29.717Z,2.70
2023-01-11T02:20:03.076Z,3.20
2023-01-11T02:22:58.921Z,2.60
2023-01-11T02:26:06.090Z,3.00
2023-01-11T02:28:40.610Z,2.47
2023-01-11T02:31:14.296Z,2.50
2023-01-11T02:33:48.051Z,2.93
2023-01-11T02:36:23.229Z,2.50
2023-01-11T02:38:57.241Z,2.40
2023-01-11T02:41:56.166Z,2.40
2023-01-11T02:44:50.267Z,2.43
2023-01-11T02:47:42.668Z,2.70
2023-01-11T02:50:17.496Z,2.53
2023-01-11T02:52:57.736Z,2.70
2023-01-11T02:55:32.451Z,2.30
2023-01-11T02:58:02.708Z,3.00
2023-01-11T03:00:32.623Z,2.37
2023-01-11T03:03:17.326Z,2.63
2023-01-11T03:05:52.073Z,2.27
2023-01-11T03:08:45.132Z,2.33
2023-01-11T03:11:35.867Z,3.40
2023-01-11T03:31:11.354Z,1.70
2023-01-11T03:40:01.290Z,1.83
2023-01-11T03:47:20.696Z,1.80
2023-01-11T03:51:02.122Z,1.70
2023-01-11T03:56:39.997Z,9.67
2023-01-11T03:59:08.744Z,2.90
2023-01-11T04:02:04.439Z,1.47
2023-01-11T04:05:02.842Z,2.37
2023-01-11T04:07:30.523Z,1.77
2023-01-11T04:09:58.535Z,1.60
2023-01-11T04:12:26.242Z,1.67
2023-01-11T04:14:53.999Z,1.67
2023-01-11T04:17:21.711Z,1.37
2023-01-11T04:19:49.477Z,1.57
2023-01-11T04:22:18.410Z,1.50
2023-01-11T04:24:46.017Z,1.30
2023-01-11T04:27:13.627Z,2.07
2023-01-11T04:29:41.277Z,1.73
2023-01-11T04:32:10.131Z,2.00
2023-01-11T04:34:37.914Z,1.30
2023-01-11T04:37:05.597Z,1.63
2023-01-11T04:39:34.566Z,1.30
2023-01-11T04:42:20.252Z,1.60
2023-01-11T04:44:48.971Z,1.60
2023-01-11T04:47:17.374Z,1.50
2023-01-11T04:49:45.643Z,1.40
2023-01-11T04:52:15.500Z,1.57
2023-01-11T04:54:45.144Z,1.53
2023-01-11T04:57:14.812Z,1.70
2023-01-11T04:59:42.867Z,2.07
2023-01-11T05:02:10.433Z,1.87
2023-01-11T05:04:38.057Z,1.37
2023-01-11T05:07:05.828Z,1.80
2023-01-11T05:09:33.451Z,1.80
2023-01-11T05:12:02.613Z,1.73
2023-01-11T05:14:30.252Z,1.57
2023-01-11T05:16:58.833Z,1.43
2023-01-11T05:19:27.768Z,1.60
2023-01-11T05:21:55.353Z,1.63
2023-01-11T05:24:23.109Z,1.90
2023-01-11T05:26:52.369Z,1.37
2023-01-11T05:29:21.885Z,1.87
2023-01-11T05:31:49.742Z,2.57
2023-01-11T05:34:18.603Z,1.93
2023-01-11T05:36:46.721Z,1.80
2023-01-11T05:39:15.125Z,1.43
2023-01-11T05:41:43.052Z,1.67
2023-01-11T05:44:30.406Z,1.40
2023-01-11T05:46:59.746Z,1.77
2023-01-11T05:49:27.361Z,1.50
2023-01-11T05:51:55.156Z,1.17
2023-01-11T05:54:23.058Z,1.10
2023-01-11T05:56:50.666Z,1.77
2023-01-11T05:59:20.456Z,1.30
2023-01-11T06:01:48.915Z,1.20
2023-01-11T06:04:17.871Z,1.13
2023-01-11T06:06:45.499Z,1.50
2023-01-11T06:09:13.258Z,1.43
2023-01-11T06:11:40.879Z,1.70
2023-01-11T06:14:08.512Z,3.50
2023-01-11T06:16:36.135Z,1.07
2023-01-11T06:19:03.908Z,1.60
2023-01-11T06:21:32.913Z,1.40
2023-01-11T06:24:00.561Z,1.23
2023-01-11T06:26:28.287Z,1.13
2023-01-11T06:28:55.973Z,1.17
2023-01-11T06:31:23.704Z,1.17
2023-01-11T06:33:51.567Z,1.47
2023-01-11T06:36:19.504Z,1.00
2023-01-11T06:38:48.454Z,0.90
2023-01-11T06:41:16.354Z,1.00
2023-01-11T06:43:44.121Z,1.13
2023-01-11T06:46:13.273Z,1.43
2023-01-11T06:48:41.058Z,1.73
2023-01-11T06:51:11.066Z,1.00
2023-01-11T06:53:39.256Z,1.17
2023-01-11T06:56:09.204Z,1.20
2023-01-11T06:58:37.754Z,1.60
2023-01-11T07:01:06.187Z,1.20
2023-01-11T07:03:34.105Z,1.73
2023-01-11T07:06:02.959Z,1.70
2023-01-11T07:08:30.672Z,1.60
2023-01-11T07:10:58.438Z,1.60
2023-01-11T07:13:27.597Z,2.43
2023-01-11T07:15:58.192Z,1.80
2023-01-11T07:18:25.882Z,2.00
2023-01-11T07:20:53.563Z,2.50
2023-01-11T07:23:23.703Z,2.40
2023-01-11T07:25:51.390Z,2.80
2023-01-11T07:28:19.328Z,2.50
2023-01-11T07:30:58.201Z,2.70
2023-01-11T07:33:27.680Z,3.73
2023-01-11T07:35:55.502Z,3.03
2023-01-11T07:38:23.455Z,2.83
2023-01-11T07:40:51.116Z,3.20
2023-01-11T07:43:19.357Z,3.97
2023-01-11T07:45:50.130Z,3.40
2023-01-11T07:48:20.829Z,3.00
2023-01-11T07:50:49.119Z,3.10
2023-01-11T07:53:16.845Z,3.10
2023-01-11T07:55:44.479Z,3.80
2023-01-11T07:58:13.180Z,3.70
2023-01-11T08:00:41.942Z,3.30
2023-01-11T08:03:11.295Z,4.20
2023-01-11T08:05:39.135Z,4.30
2023-01-11T08:08:07.255Z,3.30
2023-01-11T08:10:35.212Z,4.10
2023-01-11T08:13:20.653Z,4.50
2023-01-11T08:15:48.472Z,5.67
2023-01-11T08:18:19.481Z,5.83
2023-01-11T08:20:47.669Z,4.20
2023-01-11T08:23:15.268Z,5.20
2023-01-11T08:25:42.846Z,6.30
2023-01-11T08:28:12.235Z,8.90
2023-01-11T08:30:39.943Z,8.00
2023-01-11T08:33:07.692Z,9.00
2023-01-11T08:35:40.260Z,4.60
2023-01-11T08:38:08.184Z,5.30
2023-01-11T08:40:36.057Z,5.03
2023-01-11T08:43:03.999Z,4.80
2023-01-11T08:45:31.893Z,4.90
2023-01-11T08:48:00.654Z,3.50
2023-01-11T08:50:28.496Z,4.57
2023-01-11T08:52:57.516Z,3.87
2023-01-11T08:55:25.175Z,4.30
2023-01-11T08:57:53.225Z,6.93
2023-01-11T09:00:21.557Z,5.50
2023-01-11T09:02:49.590Z,5.47
2023-01-11T09:05:18.439Z,5.10
2023-01-11T09:07:46.754Z,4.20
2023-01-11T09:10:17.063Z,5.87
2023-01-11T09:12:45.211Z,6.67
2023-01-11T09:15:13.330Z,8.97
2023-01-11T09:17:41.546Z,5.80
2023-01-11T09:20:12.029Z,4.77
2023-01-11T09:22:40.099Z,4.23
2023-01-11T09:25:09.831Z,4.47
2023-01-11T09:27:39.194Z,5.20
2023-01-11T09:30:08.473Z,3.80
2023-01-11T09:32:36.437Z,4.20
2023-01-11T09:35:04.932Z,3.50
2023-01-11T09:37:33.069Z,4.07
2023-01-11T09:40:01.678Z,3.70
2023-01-11T09:42:37.698Z,5.70
2023-01-11T09:45:14.340Z,3.63
2023-01-11T09:47:45.705Z,5.33
2023-01-11T09:50:18.774Z,4.03
2023-01-11T09:52:51.365Z,3.50
2023-01-11T09:55:24.613Z,2.70
2023-01-11T09:58:05.900Z,3.33
2023-01-11T10:00:43.204Z,3.17
2023-01-11T10:03:27.180Z,3.13
2023-01-11T10:06:02.151Z,3.00
2023-01-11T10:18:26.730Z,3.17
2023-01-11T10:18:28.492Z,3.53
2023-01-11T10:20:35.449Z,3.20
2023-01-11T10:23:06.331Z,3.00
2023-01-11T10:25:42.665Z,3.40
2023-01-11T10:28:22.943Z,4.10
2023-01-11T10:31:07.810Z,2.90
2023-01-11T10:34:05.843Z,2.87
2023-01-11T10:36:55.647Z,2.70
2023-01-11T10:39:46.458Z,2.60
2023-01-11T10:42:21.263Z,3.60
2023-01-11T10:44:55.720Z,3.63
2023-01-11T10:47:27.814Z,4.50
2023-01-11T10:50:00.265Z,4.17
2023-01-11T10:52:34.895Z,2.60
2023-01-11T10:55:12.813Z,6.93
2023-01-11T10:58:01.437Z,2.07
2023-01-11T11:00:39.315Z,3.50
2023-01-11T11:03:21.176Z,2.50
2023-01-11T11:05:55.033Z,3.07
2023-01-11T11:08:28.677Z,2.70
2023-01-11T11:11:01.250Z,2.43
2023-01-11T11:13:43.306Z,4.57
2023-01-11T11:16:16.280Z,2.90
2023-01-11T11:18:44.242Z,3.10
2023-01-11T11:21:22.651Z,2.67
2023-01-11T11:23:55.249Z,2.73
2023-01-11T11:26:26.273Z,2.60
2023-01-11T11:29:04.212Z,2.40
2023-01-11T11:31:32.796Z,3.50
2023-01-11T11:34:07.037Z,2.63
2023-01-11T11:36:43.434Z,3.17
2023-01-11T11:39:12.940Z,2.77
2023-01-11T11:41:48.932Z,2.40
2023-01-11T11:44:19.385Z,2.10
2023-01-11T11:47:00.439Z,2.53
2023-01-11T11:49:28.887Z,3.07
2023-01-11T11:51:58.228Z,3.13
2023-01-11T11:54:29.332Z,3.37
2023-01-11T11:56:58.814Z,2.40
2023-01-11T11:59:29.944Z,3.17
2023-01-11T12:02:00.366Z,3.27
2023-01-11T12:04:41.536Z,2.53
2023-01-11T12:07:16.058Z,2.57
2023-01-11T12:09:46.732Z,2.80
2023-01-11T12:12:19.305Z,3.20
2023-01-11T12:15:08.580Z,2.90
2023-01-11T12:17:36.337Z,2.30
2023-01-11T12:20:09.192Z,2.00
2023-01-11T12:22:38.236Z,2.67
2023-01-11T12:25:21.501Z,2.93
2023-01-11T12:27:57.269Z,4.90
2023-01-11T12:30:28.068Z,2.47
2023-01-11T12:33:17.769Z,3.37
2023-01-11T12:35:52.871Z,3.20
2023-01-11T12:38:32.620Z,2.30
2023-01-11T12:41:13.580Z,2.63
2023-01-11T12:43:51.569Z,2.27
2023-01-11T12:46:26.685Z,3.77
2023-01-11T12:49:10.360Z,2.80
2023-01-11T12:51:47.642Z,3.77
2023-01-11T12:54:37.972Z,2.80
2023-01-11T12:57:15.185Z,4.57
2023-01-11T13:00:11.411Z,2.43
2023-01-11T13:03:06.701Z,3.70
2023-01-11T13:05:39.411Z,4.03
2023-01-11T13:08:13.752Z,3.60
2023-01-11T13:10:52.736Z,3.30
2023-01-11T13:13:26.573Z,4.40
2023-01-11T13:15:58.121Z,3.90
2023-01-11T13:18:32.233Z,4.70
2023-01-11T13:21:05.067Z,3.57
2023-01-11T13:23:39.328Z,4.30
2023-01-11T13:26:16.772Z,3.80
2023-01-11T13:28:46.688Z,5.20
2023-01-11T13:31:15.058Z,4.10
2023-01-11T13:33:45.109Z,3.60
2023-01-11T13:36:23.143Z,3.63
2023-01-11T13:38:54.523Z,2.87
2023-01-11T13:41:25.159Z,3.80
2023-01-11T13:43:59.872Z,3.17
2023-01-11T13:46:41.056Z,3.40
2023-01-11T13:49:15.845Z,3.40
2023-01-11T13:51:49.118Z,3.03
2023-01-11T13:54:20.024Z,3.30
2023-01-11T13:56:54.988Z,3.27
2023-01-11T13:59:28.182Z,2.60
2023-01-11T14:01:59.299Z,4.60
2023-01-11T14:04:31.021Z,3.77
2023-01-11T14:07:14.843Z,4.20
2023-01-11T14:09:59.067Z,4.20
2023-01-11T14:12:41.347Z,3.73
2023-01-11T14:15:19.208Z,3.70
2023-01-11T14:18:05.614Z,4.20
2023-01-11T14:20:38.603Z,3.87
2023-01-11T14:23:22.413Z,4.30
2023-01-11T14:26:09.035Z,6.77
2023-01-11T14:28:50.011Z,6.43
2023-01-11T14:31:45.915Z,5.00
2023-01-11T14:34:36.582Z,5.00
2023-01-11T14:37:32.440Z,3.83
2023-01-11T14:40:25.034Z,3.97
2023-01-11T14:43:05.856Z,4.10
2023-01-11T14:45:47.120Z,5.03
2023-01-11T14:48:25.885Z,3.47
2023-01-11T14:51:13.727Z,3.30
2023-01-11T14:53:45.385Z,4.13
2023-01-11T14:56:35.586Z,4.00
2023-01-11T14:59:04.195Z,3.07
2023-01-11T15:02:08.406Z,3.13
2023-01-11T15:04:39.363Z,3.17
2023-01-11T15:07:23.791Z,3.50
2023-01-11T15:09:53.492Z,3.30
2023-01-11T15:12:22.971Z,2.73
2023-01-11T15:14:54.564Z,3.50
2023-01-11T15:17:44.100Z,3.77
2023-01-11T15:20:14.431Z,3.37
2023-01-11T15:22:42.312Z,3.30
2023-01-11T15:25:21.816Z,3.33
2023-01-11T15:27:49.918Z,3.30
2023-01-11T15:30:38.670Z,4.30
2023-01-11T15:33:44.720Z,4.17
2023-01-11T15:36:12.796Z,3.63
2023-01-11T15:38:43.946Z,4.43
2023-01-11T15:41:33.002Z,3.27
2023-01-11T15:44:08.857Z,3.47
2023-01-11T15:47:26.922Z,3.17
2023-01-11T15:50:18.405Z,3.03
2023-01-11T15:53:10.115Z,3.47
2023-01-11T15:56:04.058Z,3.90
2023-01-11T15:59:09.286Z,3.23
2023-01-11T16:01:48.314Z,5.20
2023-01-11T16:04:28.605Z,3.60
2023-01-11T16:06:59.464Z,3.23
2023-01-11T16:09:53.047Z,5.87
2023-01-11T16:12:48.563Z,3.60
2023-01-11T16:15:32.039Z,3.40
2023-01-11T16:18:06.495Z,3.87
2023-01-11T16:20:34.250Z,4.50
2023-01-11T16:23:05.838Z,4.47
2023-01-11T16:25:35.970Z,3.50
2023-01-11T16:28:03.986Z,3.00
2023-01-11T16:30:31.845Z,4.23
2023-01-11T16:33:15.843Z,4.80
2023-01-11T16:35:43.677Z,3.90
2023-01-11T16:38:17.227Z,5.00
2023-01-11T16:40:48.528Z,3.10
2023-01-11T16:43:19.091Z,3.40
2023-01-11T16:45:48.240Z,4.10
2023-01-11T16:48:17.932Z,4.67
2023-01-11T16:50:48.721Z,3.40
2023-01-11T16:53:18.095Z,3.43
2023-01-11T16:55:55.078Z,3.47
2023-01-11T16:58:26.968Z,4.20
2023-01-11T17:00:59.637Z,3.80
2023-01-11T17:03:28.810Z,3.07
2023-01-11T17:06:18.441Z,4.37
2023-01-11T17:08:49.962Z,4.43
2023-01-11T17:11:25.894Z,3.90
2023-01-11T17:14:33.368Z,4.30
2023-01-11T17:17:03.468Z,4.37
2023-01-11T17:19:33.653Z,4.20
2023-01-11T17:22:05.288Z,4.37
2023-01-11T17:24:37.774Z,3.67
2023-01-11T17:27:08.959Z,3.53
2023-01-11T17:29:40.210Z,4.77
2023-01-11T17:32:09.335Z,3.00
2023-01-11T17:34:37.988Z,5.00
2023-01-11T17:37:10.304Z,5.00
2023-01-11T17:39:42.740Z,5.17
2023-01-11T17:42:30.793Z,4.73
2023-01-11T17:45:14.418Z,4.30
2023-01-11T17:47:43.501Z,3.73
2023-01-11T17:50:20.992Z,4.10
2023-01-11T17:52:54.792Z,3.97
2023-01-11T17:55:26.017Z,4.77
2023-01-11T17:58:22.609Z,4.83
2023-01-11T18:01:10.995Z,4.40
2023-01-11T18:03:43.850Z,4.17
2023-01-11T18:06:13.633Z,4.80
2023-01-11T18:08:47.027Z,5.17
2023-01-11T18:11:23.382Z,5.57
2023-01-11T18:13:52.384Z,4.10
2023-01-11T18:16:20.796Z,4.60
2023-01-11T18:18:51.400Z,5.70
2023-01-11T18:21:52.657Z,4.77
2023-01-11T18:24:43.377Z,5.30
2023-01-11T18:27:25.993Z,4.90
2023-01-11T18:29:55.574Z,5.03
2023-01-11T18:32:23.438Z,4.27
2023-01-11T18:34:55.420Z,4.73
2023-01-11T18:37:23.495Z,4.70
2023-01-11T18:39:52.427Z,5.60
2023-01-11T18:42:25.814Z,4.93
2023-01-11T18:44:53.599Z,4.23
2023-01-11T18:47:23.174Z,5.43
2023-01-11T18:49:52.063Z,5.63
2023-01-11T18:52:20.664Z,4.80
2023-01-11T18:54:48.566Z,5.97
2023-01-11T18:57:16.199Z,5.60
2023-01-11T18:59:45.151Z,5.30
2023-01-11T19:02:18.277Z,5.03
2023-01-11T19:04:46.443Z,6.10
2023-01-11T19:07:14.884Z,5.23
2023-01-11T19:09:44.935Z,4.70
2023-01-11T19:12:13.477Z,5.47
2023-01-11T19:14:41.357Z,4.43
2023-01-11T19:17:10.962Z,5.07
2023-01-11T19:19:38.633Z,4.93
2023-01-11T19:22:07.222Z,5.13
2023-01-11T19:24:35.226Z,5.80
2023-01-11T19:27:03.300Z,4.73
2023-01-11T19:29:31.844Z,4.83
2023-01-11T19:31:59.744Z,4.60
2023-01-11T19:34:28.857Z,5.93
2023-01-11T19:36:56.567Z,5.57
2023-01-11T19:39:24.220Z,4.73
2023-01-11T19:41:55.045Z,4.73
2023-01-11T19:44:24.033Z,4.53
2023-01-11T19:46:57.068Z,4.60
2023-01-11T19:49:39.122Z,3.70
2023-01-11T19:52:12.142Z,4.70
2023-01-11T19:54:41.705Z,5.00
2023-01-11T19:57:10.717Z,4.50
2023-01-11T19:59:38.456Z,5.03
2023-01-11T20:02:06.304Z,4.30
2023-01-11T20:04:34.400Z,4.97
2023-01-11T20:07:03.824Z,4.90
2023-01-11T20:09:31.821Z,4.10
2023-01-11T20:11:59.797Z,3.30
2023-01-11T20:14:27.783Z,3.37
2023-01-11T20:16:55.531Z,4.50
2023-01-11T20:19:23.214Z,3.60
2023-01-11T20:21:51.008Z,4.30
2023-01-11T20:24:20.068Z,3.30
2023-01-11T20:26:47.942Z,3.90
2023-01-11T20:29:15.825Z,4.17
2023-01-11T20:31:43.611Z,3.97
2023-01-11T20:34:12.864Z,2.90
2023-01-11T20:36:40.705Z,3.83
2023-01-11T20:39:09.199Z,3.87
2023-01-11T20:41:50.979Z,4.30
2023-01-11T20:44:20.076Z,4.30
2023-01-11T20:46:48.578Z,3.67
2023-01-11T20:49:17.110Z,4.53
2023-01-11T20:51:45.808Z,3.80
2023-01-11T20:54:13.846Z,3.80
2023-01-11T20:56:46.398Z,4.50
2023-01-11T20:59:16.470Z,4.17
2023-01-11T21:01:44.431Z,5.43
2023-01-11T21:04:13.149Z,4.30
2023-01-11T21:06:42.536Z,4.40
2023-01-11T21:09:11.470Z,4.10
2023-01-11T21:11:40.773Z,4.03
2023-01-11T21:14:12.056Z,4.00
2023-01-11T21:16:41.740Z,4.83
2023-01-11T21:19:12.352Z,4.10
2023-01-11T21:21:40.242Z,3.83
2023-01-11T21:24:09.188Z,5.47
2023-01-11T21:26:37.188Z,4.43
2023-01-11T21:29:06.228Z,6.43
2023-01-11T21:31:36.710Z,5.00
2023-01-11T21:34:04.872Z,4.00
2023-01-11T21:36:32.920Z,3.50
2023-01-11T21:39:02.477Z,4.60
2023-01-11T21:41:48.984Z,4.90
2023-01-11T21:44:17.417Z,4.00
2023-01-11T21:46:47.046Z,4.53
2023-01-11T21:49:15.318Z,5.00
2023-01-11T21:51:43.755Z,4.43
2023-01-11T21:54:13.145Z,4.37
2023-01-11T21:56:41.755Z,3.93
2023-01-11T21:59:09.644Z,4.10
2023-01-11T22:01:41.385Z,4.03
2023-01-11T22:04:12.194Z,3.80
2023-01-11T22:06:41.545Z,4.30
2023-01-11T22:09:11.356Z,4.30
2023-01-11T22:11:39.667Z,3.60
2023-01-11T22:14:08.539Z,3.93
2023-01-11T22:16:36.883Z,3.80
2023-01-11T22:19:06.094Z,3.97
2023-01-11T22:21:35.609Z,4.67
2023-01-11T22:24:03.463Z,4.83
2023-01-11T22:26:33.463Z,4.03
2023-01-11T22:29:14.942Z,4.00
2023-01-11T22:31:45.406Z,4.20
2023-01-11T22:34:14.400Z,3.50
2023-01-11T22:36:43.877Z,4.83
2023-01-11T22:39:11.846Z,2.90
2023-01-11T22:41:40.538Z,3.80
2023-01-11T22:44:08.368Z,3.80
2023-01-11T22:46:36.216Z,3.20
2023-01-11T22:49:06.065Z,3.93
2023-01-11T22:51:34.114Z,4.10
2023-01-11T22:54:03.443Z,5.43
2023-01-11T22:56:31.181Z,4.40
2023-01-11T22:58:59.550Z,4.23
2023-01-11T23:01:28.848Z,3.20
2023-01-11T23:03:57.306Z,2.67
2023-01-11T23:06:26.564Z,3.37
2023-01-11T23:08:54.512Z,3.33
2023-01-11T23:11:42.417Z,2.80
2023-01-11T23:14:12.213Z,4.17
2023-01-11T23:16:40.430Z,4.40
2023-01-11T23:19:08.989Z,2.77
2023-01-11T23:21:36.849Z,3.03
2023-01-11T23:24:05.056Z,2.73
2023-01-11T23:26:34.016Z,3.00
2023-01-11T23:29:01.804Z,4.13
2023-01-11T23:31:30.504Z,3.43
2023-01-11T23:34:00.205Z,2.87
2023-01-11T23:36:29.316Z,3.37
2023-01-11T23:38:57.087Z,3.50
2023-01-11T23:41:42.723Z,2.47
2023-01-11T23:44:13.758Z,4.20
2023-01-11T23:47:00.149Z,2.70
2023-01-11T23:49:28.751Z,3.90
2023-01-11T23:51:56.709Z,2.50
2023-01-11T23:54:27.227Z,3.13
2023-01-11T23:56:55.109Z,2.83
2023-01-11T23:59:24.065Z,2.57
